Forside
METAR-TAF:

METAR-TAF

Lufthavne :

Dehradun, Indien

Breddekreds: 30-11-23N, længdekreds: 78-10-49E, højde: 558 m

Aktuelle vejr

Denne rapport blev lavet for 4 timer og 35 minutter siden, kl. 13:00 UTC
Vind 3 kt fra vestnordvest
Temperatur 24°C
Fugtighed 44%
Tryk 1012 hPa
Sigt: 5000 m
tåge/dis

METAR: VIDN 231300Z 29003KT 5000 HZ NSC 24/11 Q1012

Tid: 23:05 (17:35 UTC)

Vejrudsigter

Denne rapport blev lavet for 6 timer og 35 minutter siden, kl. 11:00 UTC
Foreløbig gælder fra 23 på 12 UTC til 23 på 21 UTC
Vind 6 kt fra vestsydvest
Sigt: 5000 m
Spredte skyer i en højde af 9000 ft
tåge/dis
ændring
fra 23 på 14 UTC til 23 på 16 UTC
Vind 4 kt fra nordøst
Sigt: 3000 m
Nogle få skyer i en højde af 9000 ft
tåge/dis

TAF: VIDN 231100Z 2312/2321 25006KT 5000 HZ SCT090 BECMG 2314/2316 05004KT 3000 HZ FEW090

Vejrobservationer og prognoser fra mere end 4000 lufthavne (METAR og TAF).

De gule og røde prikker repræsenterer de meteorologiske stationer.

Flyt musen over at se navnet på stationen.

Så klik over at se vejr observationer og prognoser.

At skifte det kort: Klik på de grønne knapper med et sort kors for at zoome ind; på den grønne knap med en bindestreg for at zoome ud; eller på de grønne pile for tilstødende kort.


METAR-TAF: